createdAt,value
2023-05-10T00:02:11.641Z,100637.38
2023-05-10T00:04:39.764Z,100632.88
2023-05-10T00:07:07.099Z,100630.25
2023-05-10T00:09:34.357Z,100639.06
2023-05-10T00:12:01.614Z,100632.22
2023-05-10T00:14:29.454Z,100634.84
2023-05-10T00:16:58.029Z,100627.16
2023-05-10T00:19:25.509Z,100627.25
2023-05-10T00:21:54.505Z,100635.13
2023-05-10T00:24:22.916Z,100630.84
2023-05-10T00:26:51.129Z,100637.94
2023-05-10T00:29:19.508Z,100630.16
2023-05-10T00:31:55.654Z,100628.59
2023-05-10T00:34:23.803Z,100627.81
2023-05-10T00:36:52.760Z,100635.72
2023-05-10T00:39:20.514Z,100633.84
2023-05-10T00:41:48.177Z,100626.16
2023-05-10T00:44:17.112Z,100623.53
2023-05-10T00:46:48.445Z,100627.16
2023-05-10T00:49:17.907Z,100628.94
2023-05-10T00:51:47.897Z,100625.56
2023-05-10T00:54:18.192Z,100624.09
2023-05-10T00:56:51.432Z,100632.88
2023-05-10T00:59:21.420Z,100630.25
2023-05-10T01:01:50.688Z,100631.13
2023-05-10T01:04:18.790Z,100633.75
2023-05-10T01:06:47.701Z,100627.63
2023-05-10T01:09:16.088Z,100625.88
2023-05-10T01:11:44.115Z,100625.78
2023-05-10T01:14:12.962Z,100629.22
2023-05-10T01:16:46.459Z,100633.44
2023-05-10T01:19:40.775Z,100633.66
2023-05-10T01:23:05.159Z,100634.50
2023-05-10T01:26:25.087Z,100634.50
2023-05-10T01:29:46.318Z,100635.50
2023-05-10T01:32:51.614Z,100636.28
2023-05-10T01:35:33.572Z,100634.50
2023-05-10T01:38:41.447Z,100641.53
2023-05-10T01:41:55.098Z,100632.78
2023-05-10T01:45:09.264Z,100631.88
2023-05-10T01:47:57.825Z,100638.91
2023-05-10T01:50:34.172Z,100637.94
2023-05-10T01:53:09.102Z,100638.78
2023-05-10T01:55:48.580Z,100636.28
2023-05-10T01:58:30.657Z,100638.78
2023-05-10T02:01:06.811Z,100642.91
2023-05-10T02:03:41.253Z,100636.72
2023-05-10T02:06:16.061Z,100636.81
2023-05-10T02:08:48.288Z,100645.28
2023-05-10T02:11:20.370Z,100643.47
2023-05-10T02:13:56.555Z,100645.19
2023-05-10T02:16:32.145Z,100645.19
2023-05-10T02:19:05.185Z,100644.34
2023-05-10T02:21:35.554Z,100647.22
2023-05-10T02:24:07.198Z,100650.63
2023-05-10T02:26:39.377Z,100658.50
2023-05-10T02:29:13.319Z,100660.28
2023-05-10T02:31:53.099Z,100667.13
2023-05-10T02:34:24.825Z,100661.88
2023-05-10T02:36:58.332Z,100654.00
2023-05-10T02:39:39.597Z,100657.28
2023-05-10T02:42:07.969Z,100656.31
2023-05-10T02:44:42.970Z,100659.81
2023-05-10T02:47:15.046Z,100658.13
2023-05-10T02:49:50.611Z,100653.69
2023-05-10T02:52:31.247Z,100657.19
2023-05-10T02:55:06.609Z,100658.03
2023-05-10T02:57:43.398Z,100653.59
2023-05-10T03:00:15.805Z,100651.94
2023-05-10T03:02:43.926Z,100656.22
2023-05-10T03:05:11.809Z,100658.75
2023-05-10T03:07:40.001Z,100656.13
2023-05-10T03:10:14.280Z,100655.31
2023-05-10T03:13:38.757Z,100653.41
2023-05-10T03:16:17.082Z,100653.41
2023-05-10T03:19:19.449Z,100658.47
2023-05-10T03:22:06.867Z,100663.72
2023-05-10T03:24:39.042Z,100671.50
2023-05-10T03:27:09.459Z,100665.31
2023-05-10T03:29:40.798Z,100670.56
2023-05-10T03:32:09.235Z,100662.78
2023-05-10T03:34:46.892Z,100670.47
2023-05-10T03:37:17.166Z,100673.00
2023-05-10T03:39:44.488Z,100679.19
2023-05-10T03:42:13.019Z,100676.66
2023-05-10T03:44:41.439Z,100680.16
2023-05-10T03:47:10.002Z,100676.56
2023-05-10T03:49:39.390Z,100676.47
2023-05-10T03:52:07.550Z,100677.34
2023-05-10T03:54:36.444Z,100679.88
2023-05-10T03:57:04.908Z,100679.09
2023-05-10T03:59:33.653Z,100683.31
2023-05-10T04:02:01.103Z,100694.66
2023-05-10T04:04:28.562Z,100692.03
2023-05-10T04:06:59.180Z,100686.69
2023-05-10T04:09:27.008Z,100694.66
2023-05-10T04:11:55.415Z,100695.44
2023-05-10T04:14:22.671Z,100693.63
2023-05-10T04:16:50.165Z,100690.19
2023-05-10T04:19:18.224Z,100703.22
2023-05-10T04:21:49.882Z,100698.78
2023-05-10T04:24:18.190Z,100698.78
2023-05-10T04:26:48.741Z,100705.75
2023-05-10T04:29:19.109Z,100701.41
2023-05-10T04:31:49.835Z,100694.38
2023-05-10T04:34:17.306Z,100699.53
2023-05-10T04:36:45.187Z,100705.66
2023-05-10T04:39:12.994Z,100707.31
2023-05-10T04:41:56.058Z,100704.69
2023-05-10T04:44:28.650Z,100704.78
2023-05-10T04:47:00.161Z,100705.06
2023-05-10T04:49:31.681Z,100703.22
2023-05-10T04:52:02.304Z,100699.09
2023-05-10T04:54:30.278Z,100704.34
2023-05-10T04:56:57.679Z,100703.78
2023-05-10T04:59:25.722Z,100710.63
2023-05-10T05:01:53.193Z,100708.28
2023-05-10T05:04:24.550Z,100711.97
2023-05-10T05:06:53.764Z,100709.72
2023-05-10T05:09:24.003Z,100721.25
2023-05-10T05:11:52.023Z,100716.38
2023-05-10T05:14:21.887Z,100729.41
2023-05-10T05:16:49.476Z,100727.75
2023-05-10T05:19:17.060Z,100722.69
2023-05-10T05:21:45.750Z,100724.31
2023-05-10T05:24:13.678Z,100727.84
2023-05-10T05:26:41.596Z,100730.47
2023-05-10T05:29:09.275Z,100733.09
2023-05-10T05:31:36.755Z,100733.09
2023-05-10T05:34:04.411Z,100734.91
2023-05-10T05:36:39.470Z,100725.41
2023-05-10T05:39:08.454Z,100731.34
2023-05-10T05:41:37.548Z,100728.91
2023-05-10T05:44:05.074Z,100731.34
2023-05-10T05:46:33.132Z,100739.13
2023-05-10T05:49:01.241Z,100736.50
2023-05-10T05:51:30.500Z,100730.31
2023-05-10T05:53:58.304Z,100737.09
2023-05-10T05:56:25.953Z,100738.59
2023-05-10T05:58:53.781Z,100737.53
2023-05-10T06:01:21.612Z,100740.75
2023-05-10T06:03:51.874Z,100739.59
2023-05-10T06:06:21.248Z,100747.38
2023-05-10T06:08:49.076Z,100749.44
2023-05-10T06:11:17.490Z,100743.44
2023-05-10T06:13:45.799Z,100757.91
2023-05-10T06:16:14.988Z,100747.41
2023-05-10T06:18:42.649Z,100762.88
2023-05-10T06:21:10.504Z,100761.81
2023-05-10T06:23:37.997Z,100771.13
2023-05-10T06:26:05.898Z,100772.91
2023-05-10T06:28:34.577Z,100775.16
2023-05-10T06:31:06.026Z,100765.56
2023-05-10T06:33:35.568Z,100771.47
2023-05-10T06:36:05.289Z,100778.50
2023-05-10T06:38:35.056Z,100785.47
2023-05-10T06:41:03.378Z,100782.06
2023-05-10T06:43:30.716Z,100780.50
2023-05-10T06:45:58.729Z,100780.41
2023-05-10T06:48:34.897Z,100782.16
2023-05-10T06:51:16.550Z,100783.03
2023-05-10T06:53:45.176Z,100783.13
2023-05-10T06:56:15.786Z,100790.06
2023-05-10T06:58:44.203Z,100796.91
2023-05-10T07:01:11.746Z,100794.19
2023-05-10T07:03:41.526Z,100794.91
2023-05-10T07:06:29.540Z,100789.56
2023-05-10T07:09:00.549Z,100800.00
2023-05-10T07:11:28.096Z,100802.31
2023-05-10T07:13:56.465Z,100801.31
2023-05-10T07:16:24.060Z,100806.38
2023-05-10T07:18:51.923Z,100806.25
2023-05-10T07:21:24.901Z,100809.63
2023-05-10T07:23:54.468Z,100813.97
2023-05-10T07:26:21.978Z,100820.81
2023-05-10T07:28:50.565Z,100823.44
2023-05-10T07:31:17.877Z,100819.22
2023-05-10T07:33:45.177Z,100830.38
2023-05-10T07:36:12.767Z,100823.44
2023-05-10T07:38:41.144Z,100819.75
2023-05-10T07:41:08.459Z,100826.09
2023-05-10T07:43:35.967Z,100822.78
2023-05-10T07:46:04.029Z,100831.72
2023-05-10T07:48:31.784Z,100834.63
2023-05-10T07:51:00.044Z,100843.56
2023-05-10T07:53:28.582Z,100852.56
2023-05-10T07:55:59.620Z,100841.31
2023-05-10T07:58:27.866Z,100841.22
2023-05-10T08:01:02.815Z,100841.31
2023-05-10T08:03:30.270Z,100838.38
2023-05-10T08:05:58.165Z,100850.69
2023-05-10T08:08:25.492Z,100851.44
2023-05-10T08:10:52.964Z,100848.63
2023-05-10T08:13:28.462Z,100853.69
2023-05-10T08:15:56.015Z,100855.19
2023-05-10T08:18:34.711Z,100864.66
2023-05-10T08:21:04.197Z,100851.50
2023-05-10T08:23:34.377Z,100862.41
2023-05-10T08:26:02.014Z,100870.09
2023-05-10T08:28:29.590Z,100862.03
2023-05-10T08:30:59.370Z,100860.78
2023-05-10T08:33:26.928Z,100872.16
2023-05-10T08:35:54.391Z,100876.84
2023-05-10T08:38:22.644Z,100882.53
2023-05-10T08:40:57.416Z,100880.44
2023-05-10T08:43:30.830Z,100880.88
2023-05-10T08:46:06.526Z,100875.44
2023-05-10T08:48:36.818Z,100884.72
2023-05-10T08:51:05.772Z,100886.88
2023-05-10T08:53:38.225Z,100887.31
2023-05-10T08:56:09.326Z,100891.16
2023-05-10T08:58:39.369Z,100898.75
2023-05-10T09:01:08.557Z,100896.75
2023-05-10T09:03:39.884Z,100898.75
2023-05-10T09:06:08.641Z,100900.56
2023-05-10T09:08:42.154Z,100902.41
2023-05-10T09:11:23.278Z,100910.97
2023-05-10T09:13:53.605Z,100905.91
2023-05-10T09:16:24.589Z,100911.38
2023-05-10T09:18:53.174Z,100916.75
2023-05-10T09:21:22.029Z,100921.03
2023-05-10T09:23:51.185Z,100918.41
2023-05-10T09:26:24.444Z,100921.81
2023-05-10T09:29:00.195Z,100921.81
2023-05-10T09:31:59.214Z,100919.28
2023-05-10T09:34:35.812Z,100931.69
2023-05-10T09:37:06.967Z,100931.78
2023-05-10T09:39:36.094Z,100931.78
2023-05-10T09:42:14.074Z,100923.88
2023-05-10T09:44:42.514Z,100933.91
2023-05-10T09:47:11.005Z,100937.13
2023-05-10T09:49:38.580Z,100941.78
2023-05-10T09:52:08.980Z,100948.41
2023-05-10T09:54:39.099Z,100941.47
2023-05-10T09:57:23.057Z,100944.44
2023-05-10T09:59:51.742Z,100943.00
2023-05-10T10:02:22.771Z,100946.25
2023-05-10T10:04:52.181Z,100945.13
2023-05-10T10:07:28.983Z,100948.50
2023-05-10T10:09:56.546Z,100939.75
2023-05-10T10:12:23.874Z,100946.06
2023-05-10T10:14:54.712Z,100939.88
2023-05-10T10:17:24.528Z,100945.66
2023-05-10T10:19:52.288Z,100949.06
2023-05-10T10:22:21.068Z,100958.72
2023-05-10T10:24:49.750Z,100952.53
2023-05-10T10:27:47.536Z,100948.09
2023-05-10T10:30:31.019Z,100947.88
2023-05-10T10:33:56.888Z,100954.03
2023-05-10T10:36:28.169Z,100952.44
2023-05-10T10:39:03.909Z,100952.44
2023-05-10T10:41:45.439Z,100960.53
2023-05-10T10:44:36.973Z,100963.59
2023-05-10T10:47:34.311Z,100965.44
2023-05-10T10:50:09.228Z,100959.31
2023-05-10T10:52:47.342Z,100961.47
2023-05-10T10:55:30.582Z,100949.97
2023-05-10T10:58:03.355Z,100949.97
2023-05-10T11:00:42.919Z,100949.47
2023-05-10T11:03:16.152Z,100945.56
2023-05-10T11:05:51.049Z,100954.56
2023-05-10T11:08:38.243Z,100952.97
2023-05-10T11:11:15.008Z,100957.81
2023-05-10T11:14:08.651Z,100960.31
2023-05-10T11:16:47.926Z,100965.56
2023-05-10T11:19:22.046Z,100964.19
2023-05-10T11:22:15.721Z,100960.81
2023-05-10T11:25:09.998Z,100966.91
2023-05-10T11:27:39.865Z,100967.53
2023-05-10T11:30:15.978Z,100962.94
2023-05-10T11:32:57.928Z,100965.81
2023-05-10T11:35:31.948Z,100967.63
2023-05-10T11:38:03.602Z,100971.66
2023-05-10T11:40:32.775Z,100967.03
2023-05-10T11:43:13.612Z,100981.59
2023-05-10T11:45:46.654Z,100979.91
2023-05-10T11:48:19.094Z,100976.75
2023-05-10T11:50:47.782Z,100972.09
2023-05-10T11:53:27.000Z,100962.84
2023-05-10T11:56:04.139Z,100967.81
2023-05-10T11:58:39.990Z,100972.16
2023-05-10T12:01:11.433Z,100968.69
2023-05-10T12:10:41.290Z,100981.56
2023-05-10T12:13:22.283Z,100992.66
2023-05-10T12:15:52.891Z,100982.25
2023-05-10T12:18:26.730Z,100998.97
2023-05-10T12:20:55.610Z,100989.78
2023-05-10T12:23:24.545Z,100978.81
2023-05-10T12:25:55.746Z,100985.38
2023-05-10T12:28:24.094Z,100992.56
2023-05-10T12:30:55.662Z,100991.19
2023-05-10T12:33:23.565Z,100993.41
2023-05-10T12:35:56.272Z,100999.84
2023-05-10T12:38:49.143Z,100998.34
2023-05-10T12:41:28.232Z,101003.00
2023-05-10T12:47:04.196Z,101001.72
2023-05-10T12:49:32.508Z,100997.91
2023-05-10T12:52:01.314Z,101013.09
2023-05-10T12:54:33.961Z,101009.91
2023-05-10T12:57:01.690Z,101013.91
2023-05-10T12:59:37.960Z,101021.28
2023-05-10T13:02:23.177Z,101029.59
2023-05-10T13:04:52.538Z,101026.31
2023-05-10T13:07:21.056Z,101031.06
2023-05-10T13:09:49.235Z,101037.25
2023-05-10T13:12:18.612Z,101041.59
2023-05-10T13:14:56.214Z,101032.16
2023-05-10T13:17:27.317Z,101043.28
2023-05-10T13:19:57.159Z,101046.97
2023-05-10T13:22:39.237Z,101042.81
2023-05-10T13:25:14.152Z,101035.78
2023-05-10T13:27:45.917Z,101023.28
2023-05-10T13:30:17.548Z,101029.09
2023-05-10T13:32:46.686Z,101032.69
2023-05-10T13:35:14.074Z,101039.91
2023-05-10T13:37:41.844Z,101043.47
2023-05-10T13:40:10.226Z,101038.13
2023-05-10T13:42:38.840Z,101029.00
2023-05-10T13:45:08.228Z,101019.63
2023-05-10T13:47:35.555Z,101016.03
2023-05-10T13:50:11.861Z,101021.41
2023-05-10T13:52:39.361Z,101030.97
2023-05-10T13:55:08.605Z,101025.56
2023-05-10T13:57:38.303Z,101030.19
2023-05-10T14:00:11.493Z,101027.63
2023-05-10T14:02:38.962Z,101035.44
2023-05-10T14:05:18.777Z,101025.50
2023-05-10T14:07:52.475Z,101027.63
2023-05-10T14:10:19.760Z,101032.69
2023-05-10T14:12:47.675Z,101024.66
2023-05-10T14:15:15.209Z,101024.47
2023-05-10T14:17:51.688Z,101022.31
2023-05-10T14:20:19.715Z,101031.06
2023-05-10T14:22:47.484Z,101023.47
2023-05-10T14:25:16.561Z,101029.25
2023-05-10T14:27:55.607Z,101032.97
2023-05-10T14:30:24.926Z,101030.66
2023-05-10T14:32:53.713Z,101037.06
2023-05-10T14:35:26.736Z,101038.31
2023-05-10T14:38:00.498Z,101035.34
2023-05-10T14:40:29.700Z,101046.31
2023-05-10T14:42:57.377Z,101049.16
2023-05-10T14:45:25.049Z,101053.06
2023-05-10T14:47:57.302Z,101041.94
2023-05-10T14:50:37.354Z,101040.38
2023-05-10T14:56:04.841Z,101043.31
2023-05-10T14:58:38.615Z,101036.34
2023-05-10T15:01:15.312Z,101033.81
2023-05-10T15:03:43.698Z,101036.25
2023-05-10T15:06:12.308Z,101037.28
2023-05-10T15:08:39.986Z,101030.97
2023-05-10T15:11:07.888Z,101037.00
2023-05-10T15:13:36.805Z,101039.53
2023-05-10T15:16:08.336Z,101042.91
2023-05-10T15:18:35.774Z,101049.34
2023-05-10T15:21:03.232Z,101054.16
2023-05-10T15:23:38.822Z,101052.56
2023-05-10T15:26:06.472Z,101049.31
2023-05-10T15:28:34.644Z,101050.34
2023-05-10T15:31:02.220Z,101060.97
2023-05-10T15:33:31.653Z,101055.09
2023-05-10T15:35:59.291Z,101057.81
2023-05-10T15:38:29.204Z,101056.41
2023-05-10T15:41:01.377Z,101050.41
2023-05-10T15:43:28.877Z,101052.28
2023-05-10T15:45:57.714Z,101058.31
2023-05-10T15:48:25.071Z,101060.19
2023-05-10T15:50:54.302Z,101060.47
2023-05-10T15:53:22.993Z,101065.31
2023-05-10T15:55:51.100Z,101067.50
2023-05-10T15:58:21.169Z,101066.00
2023-05-10T16:00:49.497Z,101073.34
2023-05-10T16:03:18.463Z,101072.78
2023-05-10T16:05:47.078Z,101068.38
2023-05-10T16:08:14.995Z,101068.38
2023-05-10T16:10:44.884Z,101076.19
2023-05-10T16:13:19.824Z,101072.78
2023-05-10T16:15:47.696Z,101073.75
2023-05-10T16:18:17.165Z,101078.03
2023-05-10T16:20:50.528Z,101080.69
2023-05-10T16:23:18.040Z,101086.72
2023-05-10T16:25:51.686Z,101083.97
2023-05-10T16:28:21.322Z,101083.97
2023-05-10T16:30:50.600Z,101078.72
2023-05-10T16:33:18.839Z,101084.81
2023-05-10T16:35:47.150Z,101084.06
2023-05-10T16:38:15.147Z,101088.56
2023-05-10T16:40:48.894Z,101085.94
2023-05-10T16:43:19.539Z,101093.84
2023-05-10T16:45:49.230Z,101094.50
2023-05-10T16:48:18.772Z,101098.72
2023-05-10T16:51:11.815Z,101093.34
2023-05-10T16:53:40.764Z,101106.03
2023-05-10T16:56:11.264Z,101101.53
2023-05-10T16:58:40.653Z,101105.94
2023-05-10T17:01:28.282Z,101105.00
2023-05-10T17:03:58.394Z,101108.38
2023-05-10T17:06:29.023Z,101107.34
2023-05-10T17:08:58.741Z,101109.06
2023-05-10T17:11:30.038Z,101120.53
2023-05-10T17:14:03.640Z,101112.72
2023-05-10T17:16:34.987Z,101109.53
2023-05-10T17:19:02.793Z,101108.03
2023-05-10T17:21:32.070Z,101103.59
2023-05-10T17:24:04.022Z,101112.56
2023-05-10T17:26:36.148Z,101105.06
2023-05-10T17:29:16.512Z,101116.50
2023-05-10T17:31:44.350Z,101112.47
2023-05-10T17:34:14.430Z,101117.19
2023-05-10T17:36:42.837Z,101119.06
2023-05-10T17:39:11.645Z,101114.84
2023-05-10T17:41:48.799Z,101126.09
2023-05-10T17:44:16.960Z,101130.25
2023-05-10T17:46:45.324Z,101123.97
2023-05-10T17:49:15.643Z,101129.13
2023-05-10T17:51:44.681Z,101122.16
2023-05-10T17:54:13.906Z,101132.59
2023-05-10T17:56:43.473Z,101133.63
2023-05-10T17:59:13.681Z,101144.34
2023-05-10T18:01:42.270Z,101147.94
2023-05-10T18:04:09.685Z,101138.91
2023-05-10T18:06:40.146Z,101137.13
2023-05-10T18:09:08.494Z,101139.06
2023-05-10T18:11:36.842Z,101142.38
2023-05-10T18:14:04.997Z,101147.38
2023-05-10T18:16:33.241Z,101141.38
2023-05-10T18:19:11.449Z,101133.63
2023-05-10T18:21:42.873Z,101139.31
2023-05-10T18:24:16.747Z,101132.78
2023-05-10T18:26:46.885Z,101141.00
2023-05-10T18:29:14.760Z,101133.38
2023-05-10T18:31:47.291Z,101141.50
2023-05-10T18:34:16.155Z,101146.94
2023-05-10T18:36:44.338Z,101140.03
2023-05-10T18:39:17.609Z,101142.81
2023-05-10T18:42:06.257Z,101148.34
2023-05-10T18:44:36.882Z,101146.72
2023-05-10T18:47:07.009Z,101134.75
2023-05-10T18:49:52.834Z,101136.81
2023-05-10T18:52:25.017Z,101141.53
2023-05-10T18:54:59.024Z,101150.34
2023-05-10T18:57:41.066Z,101160.16
2023-05-10T19:00:23.238Z,101157.69
2023-05-10T19:05:49.660Z,101166.50
2023-05-10T19:08:21.311Z,101165.72
2023-05-10T19:10:50.996Z,101158.78
2023-05-10T19:13:30.119Z,101164.78
2023-05-10T19:16:23.461Z,101155.47
2023-05-10T19:18:54.380Z,101167.56
2023-05-10T19:21:28.594Z,101170.97
2023-05-10T19:24:08.329Z,101169.13
2023-05-10T19:26:42.095Z,101173.44
2023-05-10T19:29:14.029Z,101178.63
2023-05-10T19:31:43.003Z,101188.88
2023-05-10T19:34:12.184Z,101181.84
2023-05-10T19:36:43.530Z,101181.00
2023-05-10T19:39:14.575Z,101177.50
2023-05-10T19:41:52.638Z,101188.72
2023-05-10T19:44:25.308Z,101179.88
2023-05-10T19:46:55.675Z,101186.84
2023-05-10T19:49:23.373Z,101181.50
2023-05-10T19:51:52.499Z,101189.31
2023-05-10T19:54:22.042Z,101185.91
2023-05-10T19:56:51.579Z,101199.72
2023-05-10T19:59:23.079Z,101199.63
2023-05-10T20:01:51.857Z,101196.19
2023-05-10T20:04:21.326Z,101203.09
2023-05-10T20:06:49.425Z,101200.47
2023-05-10T20:09:18.133Z,101198.72
2023-05-10T20:11:47.186Z,101192.69
2023-05-10T20:14:18.167Z,101190.84
2023-05-10T20:16:48.413Z,101196.00
2023-05-10T20:19:56.155Z,101189.06
2023-05-10T20:22:27.980Z,101196.19
2023-05-10T20:24:56.321Z,101189.22
2023-05-10T20:27:23.929Z,101193.63
2023-05-10T20:29:51.786Z,101193.56
2023-05-10T20:32:22.500Z,101197.78
2023-05-10T20:34:56.430Z,101198.63
2023-05-10T20:37:28.888Z,101201.19
2023-05-10T20:40:06.769Z,101196.84
2023-05-10T20:42:36.030Z,101198.63
2023-05-10T20:45:05.766Z,101197.84
2023-05-10T20:47:35.159Z,101207.50
2023-05-10T20:50:07.568Z,101200.56
2023-05-10T20:52:35.007Z,101210.06
2023-05-10T20:55:03.779Z,101205.66
2023-05-10T20:57:32.758Z,101199.47
2023-05-10T21:00:01.435Z,101201.19
2023-05-10T21:02:29.461Z,101198.47
2023-05-10T21:05:03.538Z,101194.22
2023-05-10T21:07:35.120Z,101206.44
2023-05-10T21:10:05.975Z,101202.94
2023-05-10T21:12:36.046Z,101203.88
2023-05-10T21:15:10.779Z,101205.66
2023-05-10T21:17:40.384Z,101208.19
2023-05-10T21:20:16.599Z,101210.81
2023-05-10T21:22:46.623Z,101204.72
2023-05-10T21:25:17.815Z,101210.50
2023-05-10T21:27:48.353Z,101209.41
2023-05-10T21:30:16.432Z,101217.13
2023-05-10T21:32:44.485Z,101208.28
2023-05-10T21:35:12.009Z,101209.16
2023-05-10T21:37:41.428Z,101209.94
2023-05-10T21:40:14.159Z,101214.19
2023-05-10T21:42:45.471Z,101210.63
2023-05-10T21:45:20.695Z,101210.63
2023-05-10T21:47:49.453Z,101205.28
2023-05-10T21:50:17.760Z,101201.81
2023-05-10T21:52:50.394Z,101199.13
2023-05-10T21:55:19.721Z,101203.44
2023-05-10T21:57:59.442Z,101202.56
2023-05-10T22:00:26.977Z,101202.50
2023-05-10T22:02:55.178Z,101195.56
2023-05-10T22:05:23.571Z,101203.44
2023-05-10T22:07:58.904Z,101206.06
2023-05-10T22:10:30.106Z,101201.00
2023-05-10T22:13:04.709Z,101198.34
2023-05-10T22:15:36.651Z,101210.63
2023-05-10T22:18:06.331Z,101211.56
2023-05-10T22:20:36.698Z,101210.78
2023-05-10T22:23:07.049Z,101213.25
2023-05-10T22:25:35.006Z,101215.97
2023-05-10T22:28:02.720Z,101218.59
2023-05-10T22:30:33.185Z,101216.81
2023-05-10T22:33:02.079Z,101222.09
2023-05-10T22:35:30.336Z,101223.84
2023-05-10T22:37:58.677Z,101225.63
2023-05-10T22:40:26.923Z,101222.09
2023-05-10T22:42:56.915Z,101227.25
2023-05-10T22:45:25.781Z,101224.53
2023-05-10T22:47:54.791Z,101222.59
2023-05-10T22:50:22.567Z,101227.84
2023-05-10T22:52:49.986Z,101225.97
2023-05-10T22:55:20.804Z,101222.50
2023-05-10T22:57:49.916Z,101233.84
2023-05-10T23:00:17.967Z,101224.47
2023-05-10T23:02:49.313Z,101229.53
2023-05-10T23:05:20.300Z,101229.47
2023-05-10T23:07:53.225Z,101231.22
2023-05-10T23:10:21.413Z,101226.84
2023-05-10T23:12:51.497Z,101237.19
2023-05-10T23:15:26.653Z,101226.84
2023-05-10T23:18:00.998Z,101234.63
2023-05-10T23:20:29.185Z,101220.88
2023-05-10T23:22:56.857Z,101232.19
2023-05-10T23:25:24.214Z,101225.28
2023-05-10T23:27:53.166Z,101223.50
2023-05-10T23:30:20.788Z,101226.31
2023-05-10T23:32:49.780Z,101229.88
2023-05-10T23:35:17.447Z,101233.41
2023-05-10T23:37:45.625Z,101227.50
2023-05-10T23:40:17.517Z,101227.63
2023-05-10T23:42:45.365Z,101225.31
2023-05-10T23:45:13.478Z,101227.94
2023-05-10T23:47:44.512Z,101225.50
2023-05-10T23:50:14.396Z,101225.66
2023-05-10T23:52:44.287Z,101227.59
2023-05-10T23:55:12.231Z,101225.22
2023-05-10T23:57:45.360Z,101230.63
